Terminal Aerodrome Forecast
Issued by NWS

Home | Current Version | Previous Version | Text Only | Print | Product List | Glossary On
Versions: 1 2 3 4 5 6 7 8 9 10 11 12 13 14 15 16 17 18 19 20 21 22 23 24 25 26 27 28
000
FTUS41 KGYX 241428 AAA
TAFAUG
TAF AMD
KAUG 241428Z 2414/2512 35012G20KT P6SM VCSH BKN010 OVC020
     FM241800 34014G24KT P6SM VCSH BKN025 OVC040
     FM242200 32007KT P6SM BKN050=

USA.gov is the U.S. government's official web portal to all federal, state and local government web resources and services.